Decoded Metar for K24A ( in ) (IATA:) | Meteo·Mobile Aviation Weather
aviador You're here:

K24A Decoded Metar

in
Report Time2019-05-21 08:45:00
UTC Time2019-05-21 09:30:54
Flight Rules vfr VFR
Wind130° at 03 kt
Visibility9999 m
Phenomena:N/A
Clouds:N/A
Expected CloudBase > 400 ft AGL from Temp-Dew spread
CeilingNone
Temp12°C
Dew Point11°C (94% RH)
AAT11.3°C
QNH1018 hPa
Raw Report
METAR K24A 210845Z AUTO 13003KT 10SM CLR 12/11 A3007 RMK AO2 LTG DSNT
NW T01160108=

Extra information for K24A:More info

Social comments